sensor_id;sensor_type;location;lat;lon;timestamp;temperature;humidity
82351;SHT30;71951;39.366;22.950;2024-01-06T08:46:29;14;69
82351;SHT30;71951;39.366;22.950;2024-01-06T08:49:56;14;71
82351;SHT30;71951;39.366;22.950;2024-01-06T08:53:22;14;71
82351;SHT30;71951;39.366;22.950;2024-01-06T08:56:49;15;70
82351;SHT30;71951;39.366;22.950;2024-01-06T09:00:16;15;69
82351;SHT30;71951;39.366;22.950;2024-01-06T09:03:43;15;68
82351;SHT30;71951;39.366;22.950;2024-01-06T09:07:10;16;67
82351;SHT30;71951;39.366;22.950;2024-01-06T09:10:36;16;66
82351;SHT30;71951;39.366;22.950;2024-01-06T09:14:03;16;65
82351;SHT30;71951;39.366;22.950;2024-01-06T09:17:29;17;65
82351;SHT30;71951;39.366;22.950;2024-01-06T09:20:56;17;64
82351;SHT30;71951;39.366;22.950;2024-01-06T09:24:22;17;64
82351;SHT30;71951;39.366;22.950;2024-01-06T09:27:49;17;63
82351;SHT30;71951;39.366;22.950;2024-01-06T09:31:15;17;62
82351;SHT30;71951;39.366;22.950;2024-01-06T09:34:42;18;62
82351;SHT30;71951;39.366;22.950;2024-01-06T09:38:09;18;61
82351;SHT30;71951;39.366;22.950;2024-01-06T09:41:35;18;61
82351;SHT30;71951;39.366;22.950;2024-01-06T09:45:02;18;59
82351;SHT30;71951;39.366;22.950;2024-01-06T09:48:29;18;59
82351;SHT30;71951;39.366;22.950;2024-01-06T09:51:58;18;59
82351;SHT30;71951;39.366;22.950;2024-01-06T09:55:26;18;59
82351;SHT30;71951;39.366;22.950;2024-01-06T09:58:54;18;59
82351;SHT30;71951;39.366;22.950;2024-01-06T10:02:20;18;59
82351;SHT30;71951;39.366;22.950;2024-01-06T10:05:47;18;59
82351;SHT30;71951;39.366;22.950;2024-01-06T10:09:14;18;59
82351;SHT30;71951;39.366;22.950;2024-01-06T10:12:42;19;59
82351;SHT30;71951;39.366;22.950;2024-01-06T10:16:08;19;58
82351;SHT30;71951;39.366;22.950;2024-01-06T10:19:35;19;57
82351;SHT30;71951;39.366;22.950;2024-01-06T10:23:04;20;56
82351;SHT30;71951;39.366;22.950;2024-01-06T10:26:31;20;54
82351;SHT30;71951;39.366;22.950;2024-01-06T10:29:58;20;54
82351;SHT30;71951;39.366;22.950;2024-01-06T10:33:25;20;53
82351;SHT30;71951;39.366;22.950;2024-01-06T10:36:52;21;52
82351;SHT30;71951;39.366;22.950;2024-01-06T10:40:19;21;50
82351;SHT30;71951;39.366;22.950;2024-01-06T10:43:46;21;50
82351;SHT30;71951;39.366;22.950;2024-01-06T10:47:15;21;49
82351;SHT30;71951;39.366;22.950;2024-01-06T10:50:43;21;48
82351;SHT30;71951;39.366;22.950;2024-01-06T10:54:12;21;48
82351;SHT30;71951;39.366;22.950;2024-01-06T10:57:40;21;48
82351;SHT30;71951;39.366;22.950;2024-01-06T11:01:09;21;46
82351;SHT30;71951;39.366;22.950;2024-01-06T11:04:36;21;47
82351;SHT30;71951;39.366;22.950;2024-01-06T11:08:03;21;47
82351;SHT30;71951;39.366;22.950;2024-01-06T11:11:31;21;48
82351;SHT30;71951;39.366;22.950;2024-01-06T11:14:58;21;48
82351;SHT30;71951;39.366;22.950;2024-01-06T11:18:34;21;47
82351;SHT30;71951;39.366;22.950;2024-01-06T11:25:40;20;48
82351;SHT30;71951;39.366;22.950;2024-01-06T11:29:07;20;48
82351;SHT30;71951;39.366;22.950;2024-01-06T11:32:35;20;49
82351;SHT30;71951;39.366;22.950;2024-01-06T11:36:08;20;49
82351;SHT30;71951;39.366;22.950;2024-01-06T11:39:35;20;49
82351;SHT30;71951;39.366;22.950;2024-01-06T11:43:04;20;49
82351;SHT30;71951;39.366;22.950;2024-01-06T11:46:30;20;49
82351;SHT30;71951;39.366;22.950;2024-01-06T11:49:59;20;49
82351;SHT30;71951;39.366;22.950;2024-01-06T11:53:26;19;50
82351;SHT30;71951;39.366;22.950;2024-01-06T11:56:53;19;50
82351;SHT30;71951;39.366;22.950;2024-01-06T12:00:20;19;50
82351;SHT30;71951;39.366;22.950;2024-01-06T12:03:46;19;50
82351;SHT30;71951;39.366;22.950;2024-01-06T12:07:20;19;50
82351;SHT30;71951;39.366;22.950;2024-01-06T12:10:47;19;50
82351;SHT30;71951;39.366;22.950;2024-01-06T12:14:13;19;50
82351;SHT30;71951;39.366;22.950;2024-01-06T12:17:40;19;50
82351;SHT30;71951;39.366;22.950;2024-01-06T12:21:07;19;51
82351;SHT30;71951;39.366;22.950;2024-01-06T12:24:33;19;51
82351;SHT30;71951;39.366;22.950;2024-01-06T12:28:01;19;51
82351;SHT30;71951;39.366;22.950;2024-01-06T12:31:27;19;51
82351;SHT30;71951;39.366;22.950;2024-01-06T12:34:54;19;52
82351;SHT30;71951;39.366;22.950;2024-01-06T12:38:21;19;52
82351;SHT30;71951;39.366;22.950;2024-01-06T12:41:47;19;52
82351;SHT30;71951;39.366;22.950;2024-01-06T12:45:14;19;52
82351;SHT30;71951;39.366;22.950;2024-01-06T12:48:41;19;52
82351;SHT30;71951;39.366;22.950;2024-01-06T12:52:07;19;52
82351;SHT30;71951;39.366;22.950;2024-01-06T12:55:34;19;53
82351;SHT30;71951;39.366;22.950;2024-01-06T12:59:00;19;53
82351;SHT30;71951;39.366;22.950;2024-01-06T13:02:27;19;53
82351;SHT30;71951;39.366;22.950;2024-01-06T13:05:54;19;53
82351;SHT30;71951;39.366;22.950;2024-01-06T13:09:20;19;54
82351;SHT30;71951;39.366;22.950;2024-01-06T13:12:47;19;54
82351;SHT30;71951;39.366;22.950;2024-01-06T13:16:17;19;54
82351;SHT30;71951;39.366;22.950;2024-01-06T13:19:43;19;54
82351;SHT30;71951;39.366;22.950;2024-01-06T13:23:10;19;54
82351;SHT30;71951;39.366;22.950;2024-01-06T13:26:37;19;53
82351;SHT30;71951;39.366;22.950;2024-01-06T13:30:05;19;53
82351;SHT30;71951;39.366;22.950;2024-01-06T13:33:31;19;53
82351;SHT30;71951;39.366;22.950;2024-01-06T13:36:58;19;53
82351;SHT30;71951;39.366;22.950;2024-01-06T13:40:24;19;52
82351;SHT30;71951;39.366;22.950;2024-01-06T13:43:51;19;52
82351;SHT30;71951;39.366;22.950;2024-01-06T13:47:17;19;53
82351;SHT30;71951;39.366;22.950;2024-01-06T13:50:44;19;52
82351;SHT30;71951;39.366;22.950;2024-01-06T13:54:11;19;52
82351;SHT30;71951;39.366;22.950;2024-01-06T13:57:37;19;52
82351;SHT30;71951;39.366;22.950;2024-01-06T14:01:04;19;52
82351;SHT30;71951;39.366;22.950;2024-01-06T14:04:30;19;52
82351;SHT30;71951;39.366;22.950;2024-01-06T14:07:57;19;51
82351;SHT30;71951;39.366;22.950;2024-01-06T14:11:23;19;51
82351;SHT30;71951;39.366;22.950;2024-01-06T14:14:50;19;51
82351;SHT30;71951;39.366;22.950;2024-01-06T14:18:18;19;51
82351;SHT30;71951;39.366;22.950;2024-01-06T14:21:44;19;51
82351;SHT30;71951;39.366;22.950;2024-01-06T14:25:12;19;51
82351;SHT30;71951;39.366;22.950;2024-01-06T14:28:39;19;51
82351;SHT30;71951;39.366;22.950;2024-01-06T14:32:05;19;51
82351;SHT30;71951;39.366;22.950;2024-01-06T14:35:32;19;51
82351;SHT30;71951;39.366;22.950;2024-01-06T14:38:58;19;51
82351;SHT30;71951;39.366;22.950;2024-01-06T14:42:25;19;51
82351;SHT30;71951;39.366;22.950;2024-01-06T14:45:51;19;51
82351;SHT30;71951;39.366;22.950;2024-01-06T14:49:18;19;51
82351;SHT30;71951;39.366;22.950;2024-01-06T14:52:45;19;52
82351;SHT30;71951;39.366;22.950;2024-01-06T14:56:12;19;52
82351;SHT30;71951;39.366;22.950;2024-01-06T14:59:39;19;52
82351;SHT30;71951;39.366;22.950;2024-01-06T15:03:05;19;52
82351;SHT30;71951;39.366;22.950;2024-01-06T15:06:32;19;52
82351;SHT30;71951;39.366;22.950;2024-01-06T15:09:59;19;52
82351;SHT30;71951;39.366;22.950;2024-01-06T15:13:25;19;52
82351;SHT30;71951;39.366;22.950;2024-01-06T15:16:51;19;52
82351;SHT30;71951;39.366;22.950;2024-01-06T15:20:19;19;52
82351;SHT30;71951;39.366;22.950;2024-01-06T15:23:46;19;52
82351;SHT30;71951;39.366;22.950;2024-01-06T15:27:12;19;53
82351;SHT30;71951;39.366;22.950;2024-01-06T15:30:39;19;54
82351;SHT30;71951;39.366;22.950;2024-01-06T15:34:05;19;54
82351;SHT30;71951;39.366;22.950;2024-01-06T15:37:32;19;55
82351;SHT30;71951;39.366;22.950;2024-01-06T15:40:59;19;55
82351;SHT30;71951;39.366;22.950;2024-01-06T15:44:25;19;55
82351;SHT30;71951;39.366;22.950;2024-01-06T15:47:51;19;56
82351;SHT30;71951;39.366;22.950;2024-01-06T15:51:18;19;56
82351;SHT30;71951;39.366;22.950;2024-01-06T15:54:49;19;55
82351;SHT30;71951;39.366;22.950;2024-01-06T15:58:16;19;55
82351;SHT30;71951;39.366;22.950;2024-01-06T16:01:43;19;55
82351;SHT30;71951;39.366;22.950;2024-01-06T16:05:09;19;56
82351;SHT30;71951;39.366;22.950;2024-01-06T16:08:36;19;56
82351;SHT30;71951;39.366;22.950;2024-01-06T16:12:03;19;56
82351;SHT30;71951;39.366;22.950;2024-01-06T16:15:29;19;56
82351;SHT30;71951;39.366;22.950;2024-01-06T16:18:56;19;56
82351;SHT30;71951;39.366;22.950;2024-01-06T16:22:23;19;56
82351;SHT30;71951;39.366;22.950;2024-01-06T16:25:49;19;56
82351;SHT30;71951;39.366;22.950;2024-01-06T16:29:16;19;56
82351;SHT30;71951;39.366;22.950;2024-01-06T16:32:42;19;56
82351;SHT30;71951;39.366;22.950;2024-01-06T16:36:09;19;56
82351;SHT30;71951;39.366;22.950;2024-01-06T16:39:35;19;55
82351;SHT30;71951;39.366;22.950;2024-01-06T16:43:02;19;55
82351;SHT30;71951;39.366;22.950;2024-01-06T16:46:28;19;55
82351;SHT30;71951;39.366;22.950;2024-01-06T16:49:55;19;55
82351;SHT30;71951;39.366;22.950;2024-01-06T16:53:23;19;55
